Underwood, Minnesota
Current Conditions -  °F | °C
As of 12:34 PM on Saturday 20 Dec 2014 (Local Time) from KFFM Reporting Station
Haze Haze  
Wind Chill: 20°   Ceiling: 600
Heat Index: 30°   Visibility: 4mi
Dew Point: 28°   Wind: 14mph
Humidity: 93%   Direction: 190°S
Pressure: 30.05"   Gusts: NA
Location:  46.29°N, 95.87°W
Report Text: KFFM 201834Z AUTO 19012KT 4SM BR OVC006 M01/M02 A3005 RMK AO2
Loading
Personal Weather Stations






























Interactive Weather Map New forecast layout! Learn more

10-Day Weather Forecast

Advertisements
Track Severe Weather on mobile